Time;durP1;ratioP1;P1;durP2;ratioP2;P2;SDS_P1;SDS_P2;PMS_P1;PMS_P2;Temp;Humidity;BMP_temperature;BMP_pressure;BME280_temperature;BME280_humidity;BME280_pressure;Samples;Min_cycle;Max_cycle;Signal;HPM_P1;HPM_P2
2021/12/27 00:00:18;;;;;;;453.87;168.77;;;;;;;2.75;93.24;99450.13;341242;29;905;-70
2021/12/27 00:00:28;;;;;;;450.73;168.32;;;;;;;2.76;93.00;99451.84;343914;28;880;-70
2021/12/27 00:00:39;;;;;;;448.73;170.55;;;;;;;2.77;93.23;99457.84;345242;28;816;-70
2021/12/27 00:00:49;;;;;;;449.03;171.90;;;;;;;2.76;93.38;99466.47;339843;29;1371;-70
2021/12/27 00:01:00;;;;;;;448.67;170.35;;;;;;;2.76;93.35;99457.00;339958;29;921;-70
2021/12/27 00:01:11;;;;;;;448.30;168.70;;;;;;;2.78;93.11;99462.16;342476;28;1861;-70
2021/12/27 00:01:21;;;;;;;446.05;169.88;;;;;;;2.78;93.37;99454.41;342594;28;882;-70
2021/12/27 00:01:33;;;;;;;447.33;170.53;;;;;;;2.78;93.15;99456.97;342521;28;886;-70
2021/12/27 00:01:43;;;;;;;448.42;171.77;;;;;;;2.78;93.00;99454.41;341197;29;1590;-70
2021/12/27 00:01:54;;;;;;;448.37;168.73;;;;;;;2.79;93.34;99466.44;338517;29;918;-70
2021/12/27 00:02:05;;;;;;;446.58;167.05;;;;;;;2.78;93.02;99455.25;343876;28;959;-70
2021/12/27 00:02:15;;;;;;;448.43;168.13;;;;;;;2.79;93.15;99461.28;343949;28;1641;-70
2021/12/27 00:02:26;;;;;;;450.17;170.50;;;;;;;2.78;93.34;99452.66;341163;29;1025;-70
2021/12/27 00:02:37;;;;;;;448.17;170.95;;;;;;;2.78;93.02;99455.25;339852;29;865;-70
2021/12/27 00:02:49;;;;;;;445.65;168.45;;;;;;;2.78;92.57;99459.56;340478;29;1797;-70
2021/12/27 00:03:00;;;;;;;443.05;168.32;;;;;;;2.77;93.30;99458.72;341260;29;945;-70
2021/12/27 00:03:11;;;;;;;447.48;168.15;;;;;;;2.75;93.88;99460.47;341164;29;948;-70
2021/12/27 00:03:21;;;;;;;449.13;168.37;;;;;;;2.73;92.97;99451.88;339985;29;988;-70
2021/12/27 00:03:32;;;;;;;451.60;169.27;;;;;;;2.74;93.05;99465.66;342468;28;1308;-70
2021/12/27 00:03:42;;;;;;;451.23;169.30;;;;;;;2.73;93.43;99451.88;341212;28;1349;-70
2021/12/27 00:03:54;;;;;;;451.02;166.82;;;;;;;2.73;93.18;99454.44;345023;28;1673;-70
2021/12/27 00:04:05;;;;;;;447.42;164.90;;;;;;;2.72;92.82;99460.50;342631;28;1625;-70
2021/12/27 00:04:15;;;;;;;447.08;166.07;;;;;;;2.73;92.93;99451.88;340077;29;1520;-69
2021/12/27 00:04:26;;;;;;;451.23;167.93;;;;;;;2.71;93.69;99456.19;341140;28;1418;-69
2021/12/27 00:04:36;;;;;;;450.60;168.87;;;;;;;2.71;92.97;99458.78;341276;29;984;-69
2021/12/27 00:04:46;;;;;;;451.17;170.88;;;;;;;2.71;93.52;99458.78;342635;28;959;-69
2021/12/27 00:04:57;;;;;;;448.80;168.70;;;;;;;2.72;93.05;99455.31;342602;28;964;-69
2021/12/27 00:05:08;;;;;;;448.20;166.20;;;;;;;2.73;93.57;99451.00;342639;28;955;-69
2021/12/27 00:05:18;;;;;;;446.75;164.35;;;;;;;2.73;93.26;99446.69;342612;28;928;-69
2021/12/27 00:05:29;;;;;;;447.53;167.33;;;;;;;2.74;92.97;99452.72;338635;29;983;-69
2021/12/27 00:05:39;;;;;;;447.17;167.73;;;;;;;2.76;93.50;99466.47;341255;29;925;-69
2021/12/27 00:05:50;;;;;;;448.45;169.38;;;;;;;2.76;93.34;99456.16;342401;28;1220;-69
2021/12/27 00:06:00;;;;;;;447.17;169.17;;;;;;;2.75;93.39;99457.03;341127;28;1950;-69
2021/12/27 00:06:11;;;;;;;451.87;171.03;;;;;;;2.76;93.08;99461.31;341209;28;1522;-69
2021/12/27 00:06:21;;;;;;;450.20;169.63;;;;;;;2.74;93.19;99463.06;343842;28;1379;-69
2021/12/27 00:06:31;;;;;;;451.10;171.18;;;;;;;2.74;93.10;99461.34;341248;29;862;-69
2021/12/27 00:06:42;;;;;;;448.10;170.87;;;;;;;2.74;93.39;99461.34;341250;29;906;-69
2021/12/27 00:06:52;;;;;;;444.77;168.50;;;;;;;2.73;93.51;99462.19;341259;29;889;-69
2021/12/27 00:07:03;;;;;;;442.25;164.55;;;;;;;2.75;93.45;99459.59;341261;29;942;-69
2021/12/27 00:07:14;;;;;;;444.85;165.00;;;;;;;2.74;93.10;99463.91;341274;29;1264;-69
2021/12/27 00:07:25;;;;;;;453.92;168.88;;;;;;;2.75;93.10;99460.47;341194;29;889;-71
2021/12/27 00:07:35;;;;;;;453.10;169.77;;;;;;;2.76;93.42;99457.00;342462;28;1746;-70
2021/12/27 00:07:49;;;;;;;450.77;168.90;;;;;;;2.75;93.59;99457.88;342488;28;1193;-70
2021/12/27 00:07:59;;;;;;;445.35;167.45;;;;;;;2.76;93.06;99451.84;341182;29;948;-70
2021/12/27 00:08:09;;;;;;;447.63;168.07;;;;;;;2.77;93.33;99453.53;339770;28;1295;-70
2021/12/27 00:08:20;;;;;;;447.52;168.50;;;;;;;2.77;93.00;99456.13;342593;28;887;-70
2021/12/27 00:08:30;;;;;;;447.20;167.77;;;;;;;2.76;93.12;99451.84;342548;28;927;-70
2021/12/27 00:08:42;;;;;;;446.85;168.57;;;;;;;2.75;92.77;99460.47;341299;29;1015;-70
2021/12/27 00:08:52;;;;;;;445.17;168.15;;;;;;;2.76;93.37;99457.00;341299;29;948;-70
2021/12/27 00:09:03;;;;;;;445.27;168.90;;;;;;;2.75;92.90;99452.72;342479;28;1221;-71
2021/12/27 00:09:13;;;;;;;445.50;167.85;;;;;;;2.76;93.03;99453.56;341203;29;1514;-70
2021/12/27 00:09:24;;;;;;;446.10;169.10;;;;;;;2.75;93.19;99457.03;341275;29;869;-70
2021/12/27 00:09:35;;;;;;;450.10;170.98;;;;;;;2.75;92.93;99459.59;341173;29;890;-70
2021/12/27 00:09:46;;;;;;;453.25;172.35;;;;;;;2.74;93.01;99451.00;339946;29;902;-70
2021/12/27 00:09:56;;;;;;;453.73;170.73;;;;;;;2.75;93.33;99451.84;339819;29;889;-70
2021/12/27 00:10:07;;;;;;;452.37;168.80;;;;;;;2.75;93.52;99455.28;341155;29;1261;-70
2021/12/27 00:10:18;;;;;;;449.75;167.68;;;;;;;2.75;93.31;99460.47;341197;29;865;-70
2021/12/27 00:10:28;;;;;;;448.40;166.43;;;;;;;2.74;93.18;99453.56;342592;28;858;-69
2021/12/27 00:10:39;;;;;;;446.55;165.68;;;;;;;2.74;92.96;99460.47;342480;28;898;-69
2021/12/27 00:10:50;;;;;;;448.63;164.67;;;;;;;2.73;93.25;99451.88;341201;29;1536;-70
2021/12/27 00:11:00;;;;;;;449.08;166.13;;;;;;;2.74;93.24;99463.06;343704;28;1941;-70
2021/12/27 00:11:12;;;;;;;449.27;167.50;;;;;;;2.72;93.34;99450.16;342502;28;1288;-70
2021/12/27 00:11:22;;;;;;;445.67;168.35;;;;;;;2.72;93.25;99454.47;338642;29;941;-70
2021/12/27 00:11:32;;;;;;;446.45;168.32;;;;;;;2.73;93.02;99461.34;342587;28;920;-70
2021/12/27 00:11:43;;;;;;;445.87;169.23;;;;;;;2.73;93.16;99461.34;342519;28;1364;-70
2021/12/27 00:11:53;;;;;;;448.15;169.98;;;;;;;2.72;93.46;99450.16;343780;28;980;-70
2021/12/27 00:12:04;;;;;;;448.00;169.67;;;;;;;2.72;92.99;99460.50;341144;29;1357;-69
2021/12/27 00:12:14;;;;;;;447.20;169.60;;;;;;;2.72;93.65;99460.50;341151;28;1082;-69
2021/12/27 00:12:25;;;;;;;446.67;169.87;;;;;;;2.73;93.11;99456.19;342400;28;1923;-70
2021/12/27 00:12:35;;;;;;;447.90;169.95;;;;;;;2.72;93.43;99460.50;342327;28;1337;-70
2021/12/27 00:12:46;;;;;;;447.87;167.97;;;;;;;2.72;93.39;99457.91;341073;29;1832;-70
2021/12/27 00:12:56;;;;;;;446.65;166.38;;;;;;;2.72;93.48;99460.50;341107;28;1238;-70
2021/12/27 00:13:07;;;;;;;444.50;166.05;;;;;;;2.73;92.95;99453.59;342523;28;1258;-70
2021/12/27 00:13:17;;;;;;;444.53;165.90;;;;;;;2.71;93.00;99457.94;342605;28;905;-70
2021/12/27 00:13:29;;;;;;;446.15;166.88;;;;;;;2.70;93.30;99461.38;344030;28;935;-70
2021/12/27 00:13:40;;;;;;;445.13;165.60;;;;;;;2.71;93.37;99463.94;343730;28;2103;-69
2021/12/27 00:13:50;;;;;;;447.17;167.37;;;;;;;2.71;93.23;99461.38;341115;29;935;-69
2021/12/27 00:14:01;;;;;;;446.25;167.57;;;;;;;2.71;93.16;99458.78;343840;28;899;-69
2021/12/27 00:14:11;;;;;;;444.57;166.23;;;;;;;2.70;93.00;99457.06;341167;29;1721;-70
2021/12/27 00:14:21;;;;;;;442.35;166.18;;;;;;;2.71;92.98;99463.94;341284;28;1863;-70
2021/12/27 00:14:32;;;;;;;440.23;168.03;;;;;;;2.70;92.88;99462.25;339773;29;1861;-70
2021/12/27 00:14:42;;;;;;;441.38;169.23;;;;;;;2.71;93.38;99451.03;342518;28;838;-70
2021/12/27 00:14:52;;;;;;;442.77;168.47;;;;;;;2.70;92.92;99459.66;341233;29;1070;-70
2021/12/27 00:15:03;;;;;;;443.42;167.73;;;;;;;2.70;93.08;99451.91;341101;29;1193;-70
2021/12/27 00:15:14;;;;;;;442.90;166.60;;;;;;;2.72;93.45;99444.13;341131;29;1290;-70
2021/12/27 00:15:25;;;;;;;442.80;166.68;;;;;;;2.72;93.09;99455.31;341137;29;905;-71
2021/12/27 00:15:35;;;;;;;443.38;167.43;;;;;;;2.74;93.46;99442.38;343839;28;1295;-71
2021/12/27 00:15:45;;;;;;;445.00;169.03;;;;;;;2.74;93.57;99448.41;344990;28;1315;-70
2021/12/27 00:15:56;;;;;;;443.27;168.40;;;;;;;2.75;93.43;99447.53;343235;28;1233;-70
2021/12/27 00:16:06;;;;;;;444.37;167.27;;;;;;;2.76;93.20;99443.22;342515;28;934;-70
2021/12/27 00:16:17;;;;;;;441.15;165.65;;;;;;;2.77;93.21;99450.09;342498;28;1228;-70
2021/12/27 00:16:27;;;;;;;441.13;165.93;;;;;;;2.77;93.57;99450.09;342575;28;1136;-70
2021/12/27 00:16:37;;;;;;;440.42;165.68;;;;;;;2.73;93.29;99441.53;338654;28;1338;-70
2021/12/27 00:16:48;;;;;;;441.13;165.17;;;;;;;2.73;93.00;99444.13;339973;29;1141;-70
2021/12/27 00:16:58;;;;;;;442.27;163.73;;;;;;;2.71;93.88;99443.28;339911;29;1035;-70
2021/12/27 00:17:08;;;;;;;443.70;164.23;;;;;;;2.68;93.46;99443.31;342505;28;1165;-71
2021/12/27 00:17:19;;;;;;;443.17;165.33;;;;;;;2.63;93.84;99445.94;342444;28;1306;-70
2021/12/27 00:17:29;;;;;;;445.60;168.13;;;;;;;2.61;93.73;99450.28;342601;28;926;-70
2021/12/27 00:17:41;;;;;;;443.90;167.70;;;;;;;2.65;94.16;99448.50;343820;28;1845;-70
2021/12/27 00:17:51;;;;;;;444.80;166.48;;;;;;;2.67;93.74;99457.09;342406;28;893;-70
2021/12/27 00:18:02;;;;;;;447.13;167.25;;;;;;;2.69;94.15;99460.53;339949;29;969;-70
2021/12/27 00:18:13;;;;;;;446.90;166.77;;;;;;;2.71;94.40;99456.19;338600;29;978;-70
2021/12/27 00:18:23;;;;;;;444.88;167.07;;;;;;;2.72;93.88;99455.31;338725;29;862;-70
2021/12/27 00:18:34;;;;;;;440.50;164.07;;;;;;;2.74;94.41;99461.34;338620;29;862;-70
2021/12/27 00:18:44;;;;;;;439.63;164.03;;;;;;;2.74;93.80;99463.06;338611;29;937;-70
2021/12/27 00:18:54;;;;;;;440.88;163.45;;;;;;;2.75;93.38;99465.63;339998;29;833;-70
2021/12/27 00:19:05;;;;;;;440.13;162.63;;;;;;;2.75;94.13;99470.78;341245;29;1378;-70
2021/12/27 00:19:15;;;;;;;440.27;161.38;;;;;;;2.74;93.87;99469.09;342729;28;920;-70
2021/12/27 00:19:26;;;;;;;438.40;159.87;;;;;;;2.73;93.37;99464.78;341221;28;1329;-70
2021/12/27 00:19:36;;;;;;;441.60;162.20;;;;;;;2.68;93.27;99469.16;341288;29;1046;-70
2021/12/27 00:19:47;;;;;;;442.20;164.20;;;;;;;2.67;93.20;99467.44;341151;28;1352;-70
2021/12/27 00:19:57;;;;;;;444.50;167.57;;;;;;;2.65;93.44;99466.59;338581;29;961;-70
2021/12/27 00:20:09;;;;;;;443.58;167.38;;;;;;;2.66;93.30;99469.16;339939;29;1174;-70
2021/12/27 00:20:20;;;;;;;444.02;166.48;;;;;;;2.64;94.21;99463.16;341117;29;1501;-70
2021/12/27 00:20:32;;;;;;;445.63;163.27;;;;;;;2.66;93.69;99466.59;342515;28;881;-70
2021/12/27 00:20:42;;;;;;;443.77;161.45;;;;;;;2.68;93.56;99469.16;342400;28;2055;-70
2021/12/27 00:20:52;;;;;;;444.95;163.18;;;;;;;2.67;93.88;99462.28;341775;28;1594;-70
2021/12/27 00:21:03;;;;;;;444.43;166.20;;;;;;;2.70;94.01;99461.38;342468;28;1193;-70
2021/12/27 00:21:13;;;;;;;444.33;168.02;;;;;;;2.68;93.88;99462.25;343821;28;1148;-70
2021/12/27 00:21:24;;;;;;;442.97;166.10;;;;;;;2.71;93.86;99463.94;342530;28;1003;-70
2021/12/27 00:21:34;;;;;;;440.33;164.57;;;;;;;2.71;93.97;99466.53;341161;29;896;-70
2021/12/27 00:21:45;;;;;;;443.97;164.23;;;;;;;2.72;93.79;99465.66;338641;29;866;-70
2021/12/27 00:21:55;;;;;;;444.33;165.13;;;;;;;2.74;93.85;99465.66;341270;29;982;-70
2021/12/27 00:22:06;;;;;;;443.57;165.77;;;;;;;2.74;94.00;99463.06;342432;28;1475;-70
2021/12/27 00:22:16;;;;;;;440.65;163.18;;;;;;;2.76;93.80;99472.50;342485;28;1168;-70
2021/12/27 00:22:27;;;;;;;439.17;162.37;;;;;;;2.77;94.00;99460.44;339997;29;1238;-69
2021/12/27 00:22:38;;;;;;;442.55;163.18;;;;;;;2.76;93.84;99459.59;339909;29;1079;-69
2021/12/27 00:22:49;;;;;;;441.38;164.13;;;;;;;2.78;93.37;99469.91;341282;29;925;-69
2021/12/27 00:22:59;;;;;;;440.73;164.07;;;;;;;2.79;93.72;99461.28;339853;29;948;-70
2021/12/27 00:23:09;;;;;;;437.87;162.40;;;;;;;2.79;93.35;99475.06;339757;29;1541;-70
2021/12/27 00:23:20;;;;;;;440.67;162.85;;;;;;;2.78;93.59;99468.19;337090;29;1328;-70
2021/12/27 00:23:30;;;;;;;441.97;163.67;;;;;;;2.80;93.36;99471.59;341246;29;945;-70
2021/12/27 00:23:41;;;;;;;442.75;162.98;;;;;;;2.79;93.30;99475.06;342548;28;1181;-70
2021/12/27 00:23:51;;;;;;;442.43;164.23;;;;;;;2.80;93.00;99473.31;341010;29;1564;-68
2021/12/27 00:24:02;;;;;;;444.02;164.98;;;;;;;2.79;93.78;99476.78;342937;28;1221;-68
2021/12/27 00:24:12;;;;;;;446.58;166.23;;;;;;;2.79;93.74;99477.63;342503;28;1757;-68
2021/12/27 00:24:23;;;;;;;444.83;165.67;;;;;;;2.78;93.41;99475.94;343812;28;1299;-70
2021/12/27 00:24:33;;;;;;;443.50;164.37;;;;;;;2.78;93.48;99475.94;341264;29;926;-70
2021/12/27 00:24:46;;;;;;;443.77;163.63;;;;;;;2.77;93.34;99470.78;343891;28;957;-70
2021/12/27 00:24:57;;;;;;;447.50;164.52;;;;;;;2.75;93.50;99470.78;345106;28;1349;-70
2021/12/27 00:25:08;;;;;;;448.37;166.20;;;;;;;2.75;93.23;99468.22;345065;28;2029;-69
2021/12/27 00:25:18;;;;;;;445.15;167.05;;;;;;;2.75;93.78;99468.22;341104;29;2083;-69
2021/12/27 00:25:29;;;;;;;441.80;164.63;;;;;;;2.74;93.82;99465.66;343761;28;1264;-72
2021/12/27 00:25:39;;;;;;;439.08;162.32;;;;;;;2.75;93.35;99468.22;342447;28;936;-72
2021/12/27 00:25:50;;;;;;;439.90;164.07;;;;;;;2.75;93.30;99465.63;340934;29;1346;-69
2021/12/27 00:26:00;;;;;;;439.33;166.23;;;;;;;2.76;93.54;99467.34;342615;28;879;-69
2021/12/27 00:26:10;;;;;;;441.95;165.18;;;;;;;2.76;93.87;99457.00;341240;29;1027;-69
2021/12/27 00:26:21;;;;;;;442.70;163.40;;;;;;;2.75;93.57;99460.47;339899;28;1231;-69
2021/12/27 00:26:31;;;;;;;443.80;162.57;;;;;;;2.76;93.54;99451.84;341067;28;1228;-69
2021/12/27 00:26:44;;;;;;;442.93;163.73;;;;;;;2.78;93.30;99455.25;341186;29;937;-69
2021/12/27 00:26:54;;;;;;;444.95;165.90;;;;;;;2.74;93.33;99458.75;341334;29;893;-69
2021/12/27 00:27:06;;;;;;;443.10;165.80;;;;;;;2.74;93.91;99465.66;341192;29;1269;-68
2021/12/27 00:27:17;;;;;;;442.48;164.60;;;;;;;2.73;93.94;99457.03;342373;28;1105;-70
2021/12/27 00:27:27;;;;;;;442.33;163.02;;;;;;;2.72;93.21;99459.63;342391;28;1568;-70
2021/12/27 00:27:38;;;;;;;445.00;162.60;;;;;;;2.69;93.96;99460.53;341133;29;762;-70
2021/12/27 00:27:48;;;;;;;445.08;164.00;;;;;;;2.71;93.78;99461.38;339773;28;1558;-69
2021/12/27 00:27:58;;;;;;;443.63;163.87;;;;;;;2.74;94.02;99469.09;342463;28;827;-69
2021/12/27 00:28:09;;;;;;;443.23;164.50;;;;;;;2.76;93.32;99469.06;341183;28;1507;-69
2021/12/27 00:28:19;;;;;;;442.30;163.70;;;;;;;2.75;93.86;99468.22;343783;28;1303;-69
2021/12/27 00:28:30;;;;;;;446.08;165.00;;;;;;;2.75;93.82;99465.63;341227;29;858;-69
2021/12/27 00:28:40;;;;;;;447.67;165.82;;;;;;;2.76;93.86;99467.34;343769;28;1368;-69
2021/12/27 00:28:51;;;;;;;447.33;167.23;;;;;;;2.76;93.61;99466.47;342612;28;848;-69
2021/12/27 00:29:01;;;;;;;444.00;166.98;;;;;;;2.75;93.61;99475.97;342574;28;806;-69
2021/12/27 00:29:14;;;;;;;440.17;164.93;;;;;;;2.75;93.45;99470.78;341145;29;1385;-69
2021/12/27 00:29:24;;;;;;;440.33;162.15;;;;;;;2.74;93.77;99474.25;338538;29;898;-70
2021/12/27 00:29:34;;;;;;;439.25;161.32;;;;;;;2.71;93.29;99474.28;341111;28;869;-70
2021/12/27 00:29:45;;;;;;;442.93;162.40;;;;;;;2.69;93.84;99468.28;342660;28;794;-69
2021/12/27 00:29:55;;;;;;;443.13;162.25;;;;;;;2.67;93.59;99467.44;342505;28;936;-69
2021/12/27 00:30:06;;;;;;;442.57;162.97;;;;;;;2.68;93.55;99469.16;342521;28;952;-69
2021/12/27 00:30:18;;;;;;;447.63;164.10;;;;;;;2.66;93.40;99465.72;341030;28;1288;-69
2021/12/27 00:30:28;;;;;;;446.95;165.88;;;;;;;2.66;93.77;99460.56;341161;29;1383;-69
2021/12/27 00:30:38;;;;;;;445.67;164.63;;;;;;;2.67;93.65;99457.09;341114;29;1208;-69
2021/12/27 00:30:49;;;;;;;444.48;166.20;;;;;;;2.69;93.44;99457.94;341009;29;1524;-69
2021/12/27 00:31:00;;;;;;;445.40;166.07;;;;;;;2.68;93.62;99458.81;341296;29;917;-70
2021/12/27 00:31:10;;;;;;;446.30;167.57;;;;;;;2.68;93.22;99453.66;339821;29;1362;-70
2021/12/27 00:31:21;;;;;;;446.70;168.32;;;;;;;2.69;93.86;99445.03;341102;29;1376;-69
2021/12/27 00:31:31;;;;;;;447.20;169.27;;;;;;;2.64;93.44;99457.13;342531;28;965;-69
2021/12/27 00:31:42;;;;;;;447.50;169.35;;;;;;;2.65;93.55;99448.50;342553;28;889;-69
2021/12/27 00:31:52;;;;;;;444.38;167.80;;;;;;;2.66;93.60;99456.25;341083;29;1047;-69
2021/12/27 00:32:03;;;;;;;444.63;165.37;;;;;;;2.67;93.93;99457.09;341148;29;881;-69
2021/12/27 00:32:13;;;;;;;440.33;163.00;;;;;;;2.68;93.99;99458.81;341220;29;939;-69
2021/12/27 00:32:24;;;;;;;440.07;162.57;;;;;;;2.69;93.66;99457.94;341088;29;1551;-69
2021/12/27 00:32:36;;;;;;;436.73;163.57;;;;;;;2.71;93.38;99460.50;343769;28;2011;-69
2021/12/27 00:32:47;;;;;;;438.75;165.70;;;;;;;2.70;93.95;99464.81;343929;28;927;-69
2021/12/27 00:32:57;;;;;;;440.15;165.55;;;;;;;2.70;93.48;99467.41;343879;28;930;-69
2021/12/27 00:33:08;;;;;;;443.55;163.80;;;;;;;2.69;93.75;99465.69;343781;28;1407;-69
2021/12/27 00:33:19;;;;;;;444.58;163.73;;;;;;;2.68;93.16;99466.56;342502;28;1411;-69
2021/12/27 00:33:29;;;;;;;444.13;163.53;;;;;;;2.68;93.99;99464.84;342529;28;924;-69
2021/12/27 00:33:39;;;;;;;442.48;162.77;;;;;;;2.69;93.43;99470.84;341281;28;1352;-69
2021/12/27 00:33:50;;;;;;;441.83;162.63;;;;;;;2.68;93.36;99467.41;342336;28;1954;-69
2021/12/27 00:34:00;;;;;;;440.35;161.73;;;;;;;2.68;93.92;99463.97;341146;29;942;-69
2021/12/27 00:34:11;;;;;;;439.67;160.80;;;;;;;2.66;93.33;99466.59;342422;28;1551;-69
2021/12/27 00:34:21;;;;;;;443.52;163.13;;;;;;;2.67;94.12;99467.44;342551;28;1048;-69
2021/12/27 00:34:31;;;;;;;447.37;165.90;;;;;;;2.68;93.49;99463.97;343815;28;1335;-69
2021/12/27 00:34:42;;;;;;;450.67;165.83;;;;;;;2.65;93.38;99461.44;341197;28;1302;-69
2021/12/27 00:34:52;;;;;;;450.02;165.02;;;;;;;2.68;93.96;99458.81;343931;28;847;-69
2021/12/27 00:35:06;;;;;;;446.87;165.43;;;;;;;2.69;94.15;99455.34;341223;28;1255;-69
2021/12/27 00:35:18;;;;;;;440.75;166.10;;;;;;;2.69;94.02;99455.34;341240;29;996;-69
2021/12/27 00:35:29;;;;;;;442.02;164.90;;;;;;;2.71;94.12;99458.78;341226;29;885;-69
2021/12/27 00:35:41;;;;;;;440.08;161.80;;;;;;;2.72;93.62;99449.31;341973;28;1667;-69
2021/12/27 00:35:51;;;;;;;441.95;165.70;;;;;;;2.73;94.16;99451.88;339806;29;2093;-69
2021/12/27 00:36:01;;;;;;;440.17;165.55;;;;;;;2.72;93.85;99445.00;342527;28;1343;-69
2021/12/27 00:36:12;;;;;;;445.93;167.03;;;;;;;2.64;93.76;99455.41;341777;28;1016;-69
2021/12/27 00:36:23;;;;;;;445.85;166.60;;;;;;;2.63;93.97;99450.25;340952;29;943;-69
2021/12/27 00:36:33;;;;;;;447.25;167.93;;;;;;;2.64;93.92;99451.97;339718;29;1008;-69
2021/12/27 00:36:44;;;;;;;445.07;167.80;;;;;;;2.66;93.59;99445.91;342369;28;935;-69
2021/12/27 00:36:54;;;;;;;444.15;165.60;;;;;;;2.67;94.01;99455.38;342437;28;838;-69
2021/12/27 00:37:05;;;;;;;445.03;165.00;;;;;;;2.67;93.74;99452.78;341137;29;901;-69
2021/12/27 00:37:16;;;;;;;444.65;163.25;;;;;;;2.69;93.92;99452.78;340962;29;1029;-69
2021/12/27 00:37:26;;;;;;;442.42;162.07;;;;;;;2.69;93.97;99457.94;339885;29;1201;-69
2021/12/27 00:37:36;;;;;;;440.83;160.60;;;;;;;2.68;93.92;99457.09;341280;29;1128;-69
2021/12/27 00:37:47;;;;;;;441.23;160.85;;;;;;;2.65;93.70;99454.53;342464;28;917;-69
2021/12/27 00:37:59;;;;;;;444.58;164.73;;;;;;;2.66;94.13;99455.41;341287;29;896;-69
2021/12/27 00:38:09;;;;;;;446.00;167.88;;;;;;;2.66;93.90;99455.41;341178;29;949;-69
2021/12/27 00:38:19;;;;;;;445.48;167.40;;;;;;;2.67;94.09;99459.69;339739;29;979;-69
2021/12/27 00:38:30;;;;;;;448.03;167.50;;;;;;;2.68;93.51;99453.66;342557;28;841;-69
2021/12/27 00:38:40;;;;;;;449.40;167.60;;;;;;;2.68;93.68;99456.22;342630;28;944;-69
2021/12/27 00:38:51;;;;;;;450.33;168.50;;;;;;;2.70;94.18;99457.06;342410;28;1243;-69
2021/12/27 00:39:01;;;;;;;449.23;166.53;;;;;;;2.71;93.95;99451.03;342618;28;940;-69
2021/12/27 00:39:12;;;;;;;445.80;165.37;;;;;;;2.70;94.12;99457.06;341208;29;833;-69
2021/12/27 00:39:22;;;;;;;443.45;164.82;;;;;;;2.70;94.06;99449.31;341169;29;915;-69
2021/12/27 00:39:32;;;;;;;441.80;165.73;;;;;;;2.71;93.83;99447.59;341165;29;1043;-69
2021/12/27 00:39:43;;;;;;;442.45;167.18;;;;;;;2.70;93.96;99445.88;339824;29;1225;-69
2021/12/27 00:39:53;;;;;;;444.23;166.37;;;;;;;2.71;93.46;99445.88;341003;29;1168;-69
2021/12/27 00:40:04;;;;;;;446.93;167.83;;;;;;;2.72;93.62;99445.00;341219;29;971;-69
2021/12/27 00:40:15;;;;;;;445.88;165.85;;;;;;;2.73;93.73;99440.69;341198;29;969;-69
2021/12/27 00:40:25;;;;;;;447.27;168.90;;;;;;;2.74;93.47;99444.97;342322;28;1194;-69
2021/12/27 00:40:36;;;;;;;443.63;166.45;;;;;;;2.74;94.05;99442.38;343869;28;857;-69
2021/12/27 00:40:46;;;;;;;445.73;165.13;;;;;;;2.73;94.28;99441.53;344477;28;1809;-69
2021/12/27 00:40:57;;;;;;;449.10;163.52;;;;;;;2.72;93.92;99445.00;343844;28;956;-69
2021/12/27 00:41:07;;;;;;;451.43;164.40;;;;;;;2.70;93.92;99441.56;343952;28;972;-69
2021/12/27 00:41:17;;;;;;;449.52;164.13;;;;;;;2.67;93.63;99441.59;343870;28;1203;-69
2021/12/27 00:41:28;;;;;;;448.60;166.60;;;;;;;2.63;93.93;99445.94;342487;28;933;-69
2021/12/27 00:41:38;;;;;;;451.25;168.32;;;;;;;2.63;94.60;99450.25;343777;28;1379;-69
2021/12/27 00:41:48;;;;;;;453.70;170.33;;;;;;;2.61;94.11;99449.41;343790;28;1221;-69
2021/12/27 00:41:59;;;;;;;452.17;167.17;;;;;;;2.62;94.33;99444.25;342426;28;1282;-69
2021/12/27 00:42:10;;;;;;;449.02;165.88;;;;;;;2.65;93.93;99453.69;342531;28;1455;-69
2021/12/27 00:42:20;;;;;;;444.67;164.90;;;;;;;2.66;94.24;99450.22;342106;28;1771;-69
2021/12/27 00:42:31;;;;;;;445.27;166.60;;;;;;;2.68;94.50;99453.66;341162;29;1003;-69
2021/12/27 00:42:41;;;;;;;441.93;165.17;;;;;;;2.70;93.99;99451.91;341151;29;826;-69
2021/12/27 00:42:52;;;;;;;444.38;164.57;;;;;;;2.72;94.64;99449.31;341222;29;1011;-69
2021/12/27 00:43:02;;;;;;;443.47;161.90;;;;;;;2.73;94.53;99451.88;343910;28;885;-69
2021/12/27 00:43:12;;;;;;;442.88;160.32;;;;;;;2.73;94.20;99451.88;342515;28;853;-69
2021/12/27 00:43:23;;;;;;;441.23;160.03;;;;;;;2.73;94.74;99457.03;341209;29;1099;-69
2021/12/27 00:43:33;;;;;;;442.80;164.02;;;;;;;2.72;94.39;99447.56;341119;28;1347;-69
2021/12/27 00:43:44;;;;;;;445.83;165.37;;;;;;;2.73;94.49;99440.69;343896;28;967;-69
2021/12/27 00:43:54;;;;;;;443.90;165.30;;;;;;;2.73;94.41;99438.94;343821;28;959;-69
2021/12/27 00:44:04;;;;;;;442.37;164.33;;;;;;;2.73;93.87;99444.13;343208;28;1550;-69
2021/12/27 00:44:15;;;;;;;440.07;165.03;;;;;;;2.74;94.11;99443.25;341171;29;1276;-69
2021/12/27 00:44:25;;;;;;;442.48;166.90;;;;;;;2.74;93.71;99438.06;338442;29;1272;-69
2021/12/27 00:44:36;;;;;;;442.77;167.87;;;;;;;2.74;94.28;99443.25;342430;28;1648;-70
2021/12/27 00:44:46;;;;;;;443.33;169.45;;;;;;;2.74;94.56;99438.06;342408;28;1527;-70
2021/12/27 00:44:56;;;;;;;443.93;167.67;;;;;;;2.74;94.14;99443.25;342430;28;1357;-70
2021/12/27 00:45:07;;;;;;;445.85;167.88;;;;;;;2.77;94.14;99437.19;338526;29;1454;-70
2021/12/27 00:45:18;;;;;;;445.27;166.35;;;;;;;2.74;94.36;99438.06;341223;29;897;-70
2021/12/27 00:45:28;;;;;;;442.73;165.27;;;;;;;2.73;93.93;99430.34;342496;28;1246;-70
2021/12/27 00:45:39;;;;;;;443.30;165.77;;;;;;;2.72;94.44;99442.41;339597;28;1663;-70
2021/12/27 00:45:49;;;;;;;443.40;166.33;;;;;;;2.67;94.29;99433.84;341006;29;966;-70
2021/12/27 00:46:00;;;;;;;444.50;167.07;;;;;;;2.67;94.63;99441.59;342418;28;1251;-70
2021/12/27 00:46:10;;;;;;;441.73;166.53;;;;;;;2.68;94.43;99440.72;343771;28;1283;-70
2021/12/27 00:46:20;;;;;;;443.35;167.00;;;;;;;2.69;94.34;99434.69;340849;29;1856;-70
2021/12/27 00:46:31;;;;;;;444.10;166.77;;;;;;;2.71;94.63;99437.25;342299;28;1556;-70
2021/12/27 00:46:41;;;;;;;446.35;167.50;;;;;;;2.72;94.26;99442.41;342433;28;942;-70
2021/12/27 00:46:52;;;;;;;443.83;166.03;;;;;;;2.73;93.93;99441.53;342527;28;1453;-70
2021/12/27 00:47:02;;;;;;;444.30;166.50;;;;;;;2.71;94.22;99443.28;341132;29;1382;-70
2021/12/27 00:47:13;;;;;;;445.13;166.50;;;;;;;2.71;94.23;99439.84;342543;28;946;-70
2021/12/27 00:47:23;;;;;;;449.87;169.10;;;;;;;2.70;94.50;99433.81;340985;28;1830;-70
2021/12/27 00:47:34;;;;;;;449.48;171.13;;;;;;;2.71;94.06;99439.84;342554;28;916;-70
2021/12/27 00:47:44;;;;;;;446.37;171.70;;;;;;;2.69;94.47;99434.69;341129;29;1202;-70
2021/12/27 00:47:54;;;;;;;443.65;170.25;;;;;;;2.71;94.83;99443.28;339760;29;963;-70
2021/12/27 00:48:05;;;;;;;441.20;169.23;;;;;;;2.72;94.35;99439.81;339980;29;858;-70
2021/12/27 00:48:15;;;;;;;440.77;167.05;;;;;;;2.73;94.56;99445.84;341155;29;873;-70
2021/12/27 00:48:26;;;;;;;442.37;166.47;;;;;;;2.74;94.48;99439.81;341174;28;1312;-70
2021/12/27 00:48:36;;;;;;;446.98;167.18;;;;;;;2.73;94.65;99441.53;342416;28;1308;-70
2021/12/27 00:48:46;;;;;;;446.23;165.30;;;;;;;2.74;94.12;99438.06;339922;29;830;-70
2021/12/27 00:48:57;;;;;;;445.63;165.07;;;;;;;2.76;94.63;99441.50;341037;29;1694;-70
2021/12/27 00:49:07;;;;;;;439.92;160.77;;;;;;;2.77;94.20;99438.03;342453;28;1369;-70
2021/12/27 00:49:18;;;;;;;439.60;163.40;;;;;;;2.77;93.75;99434.59;342494;28;921;-70
2021/12/27 00:49:28;;;;;;;437.35;162.50;;;;;;;2.76;93.92;99432.88;342541;28;945;-70
2021/12/27 00:49:38;;;;;;;437.67;162.20;;;;;;;2.76;93.86;99436.34;339931;29;897;-70
2021/12/27 00:49:49;;;;;;;437.63;160.30;;;;;;;2.74;94.49;99427.75;342387;28;1208;-70